BRE weather

Las Brechas Airport
Hermosillo, Sonora, Mexico

Public forecast

Using degrees Celsius for public forecast. Weather courtesy of forecast.io.

METAR (pilot weather report)

Closest report is General Ignacio P. Garcia International Airport, 16.9 nm (31.2 km) SW. Retrieved 2019/05/21 14:40 UTC (10 minutes ago):

MMHO 211440Z 11004KT 10SM SKC 20/03 A2990 RMK SLP125 52006 916 HZY

TAF (pilot weather forecast)

Forecast is more than 6 hours old.

Closest forecast is General Ignacio P. Garcia International Airport, 16.9 nm (31.2 km) SW. Retrieved 2019/05/21 06:35 UTC (8 hours ago):

TAF MMHO 210428Z 2106/2206 26005KT P6SM SCT200 FM211900 25015KT P6SM SCT200 FM220400 24005KT P6SM SCT200